Inchelium, Washington
Current Conditions -  °F | °C
As of 5:53 AM on Thursday 23 Oct 2014 (Local Time) from KDEW Reporting Station
Broken Clouds Broken Clouds  
Wind Chill: 50°   Ceiling: 12000
Heat Index: 50°   Visibility: 10mi
Dew Point: 47°   Wind: 7mph
Humidity: 89%   Direction: 140°SE
Pressure: 29.78"   Gusts: NA
Location:  48.34°N, 118.25°W
Report Text: KDEW 231253Z AUTO 14006KT 10SM FEW023 SCT100 BKN120 10/08 A2978 RMK AO2 SLP085 T01000083
Loading
Personal Weather Stations






























Interactive Weather Map
Tropical Storm Tracking
New forecast layout! Learn more

10-Day Weather Forecast

Advertisements
Track Severe Weather on mobile